Time;durP1;ratioP1;P1;durP2;ratioP2;P2;SDS_P1;SDS_P2;PMS_P1;PMS_P2;Temp;Humidity;BMP_temperature;BMP_pressure;BME280_temperature;BME280_humidity;BME280_pressure;Samples;Min_cycle;Max_cycle;Signal;HPM_P1;HPM_P2
2021/03/06 00:00:50;;;;;;;20.40;6.13;;;;;;;;;;6194950;23;20162;-89
2021/03/06 00:03:55;;;;;;;13.40;5.53;;;;;;;;;;6195669;23;20222;-90
2021/03/06 00:07:00;;;;;;;17.93;6.23;;;;;;;;;;6196867;23;20238;-89
2021/03/06 00:10:05;;;;;;;18.13;6.50;;;;;;;;;;6197427;23;20163;-88
2021/03/06 00:13:10;;;;;;;17.47;6.90;;;;;;;;;;6197426;23;20168;-90
2021/03/06 00:16:14;;;;;;;15.27;5.70;;;;;;;;;;6196973;23;20175;-91
2021/03/06 00:19:19;;;;;;;12.60;5.10;;;;;;;;;;6194780;23;20168;-89
2021/03/06 00:22:24;;;;;;;13.73;5.07;;;;;;;;;;6196146;23;20283;-89
2021/03/06 00:25:29;;;;;;;15.50;6.07;;;;;;;;;;6195888;23;20615;-90
2021/03/06 00:28:33;;;;;;;12.87;5.80;;;;;;;;;;6196739;23;20291;-90
2021/03/06 00:31:38;;;;;;;12.00;5.57;;;;;;;;;;6195830;23;20188;-89
2021/03/06 00:34:42;;;;;;;11.37;5.90;;;;;;;;;;6195130;23;20510;-89
2021/03/06 00:37:48;;;;;;;13.37;5.23;;;;;;;;;;6196513;23;20570;-89
2021/03/06 00:40:53;;;;;;;15.33;5.43;;;;;;;;;;6195269;23;20203;-90
2021/03/06 00:43:58;;;;;;;14.80;5.80;;;;;;;;;;6195125;23;20176;-89
2021/03/06 00:47:02;;;;;;;15.63;6.03;;;;;;;;;;6195768;23;20199;-89
2021/03/06 00:50:09;;;;;;;13.77;5.77;;;;;;;;;;6179436;23;20192;-90
2021/03/06 00:53:15;;;;;;;15.83;5.97;;;;;;;;;;6201089;23;20192;-90
2021/03/06 00:56:21;;;;;;;14.77;5.83;;;;;;;;;;6196956;23;20164;-89
2021/03/06 00:59:26;;;;;;;12.07;5.83;;;;;;;;;;6198454;23;20641;-90
2021/03/06 01:02:30;;;;;;;12.37;5.70;;;;;;;;;;6197328;23;20172;-89
2021/03/06 01:05:35;;;;;;;13.90;5.73;;;;;;;;;;6195688;23;20554;-89
2021/03/06 01:08:40;;;;;;;16.70;6.47;;;;;;;;;;6194363;23;20175;-90
2021/03/06 01:11:46;;;;;;;15.23;5.90;;;;;;;;;;6197665;23;20176;-90
2021/03/06 01:14:50;;;;;;;14.00;6.00;;;;;;;;;;6180006;23;20168;-89
2021/03/06 01:17:55;;;;;;;13.63;5.93;;;;;;;;;;6196022;23;20168;-88
2021/03/06 01:20:59;;;;;;;13.47;6.20;;;;;;;;;;6195938;23;20270;-90
2021/03/06 01:24:05;;;;;;;21.30;8.27;;;;;;;;;;6197635;23;20179;-88
2021/03/06 01:27:10;;;;;;;16.30;6.53;;;;;;;;;;6195670;23;20379;-89
2021/03/06 01:30:15;;;;;;;15.53;5.93;;;;;;;;;;6179760;23;20199;-89
2021/03/06 01:33:19;;;;;;;17.57;6.57;;;;;;;;;;6180115;23;20175;-89
2021/03/06 01:36:24;;;;;;;12.00;5.43;;;;;;;;;;6196003;23;20195;-89
2021/03/06 01:39:30;;;;;;;14.97;5.80;;;;;;;;;;6195293;23;20216;-88
2021/03/06 01:42:34;;;;;;;12.80;5.63;;;;;;;;;;6194634;23;20260;-89
2021/03/06 01:45:43;;;;;;;14.00;5.63;;;;;;;;;;6212590;23;20259;-90
2021/03/06 01:48:47;;;;;;;15.33;6.17;;;;;;;;;;6196299;23;20179;-89
2021/03/06 01:51:51;;;;;;;13.20;5.43;;;;;;;;;;6194870;23;20611;-89
2021/03/06 01:54:58;;;;;;;13.40;6.10;;;;;;;;;;6193499;23;20216;-89
2021/03/06 01:58:03;;;;;;;13.20;5.70;;;;;;;;;;6193340;23;20215;-90
2021/03/06 02:01:09;;;;;;;12.03;5.30;;;;;;;;;;6196489;23;20180;-89
2021/03/06 02:04:14;;;;;;;13.27;5.67;;;;;;;;;;6196314;23;20179;-89
2021/03/06 02:07:19;;;;;;;13.50;5.50;;;;;;;;;;6196227;23;20288;-89
2021/03/06 02:10:28;;;;;;;13.30;5.87;;;;;;;;;;6196833;23;20287;-88
2021/03/06 02:13:45;;;;;;;12.67;5.70;;;;;;;;;;6194954;23;20192;-89
2021/03/06 02:16:51;;;;;;;14.70;5.70;;;;;;;;;;6195588;23;20172;-89
2021/03/06 02:20:09;;;;;;;14.53;6.27;;;;;;;;;;6195784;23;20223;-90
2021/03/06 02:23:25;;;;;;;12.50;5.33;;;;;;;;;;6213739;23;20171;-89
2021/03/06 02:26:50;;;;;;;15.17;6.50;;;;;;;;;;6194046;23;20195;-89
2021/03/06 02:29:58;;;;;;;12.13;5.10;;;;;;;;;;6198339;23;20180;-89
2021/03/06 02:33:03;;;;;;;11.27;5.30;;;;;;;;;;6198138;23;20216;-90
2021/03/06 02:36:10;;;;;;;10.50;5.67;;;;;;;;;;6197258;23;20245;-90
2021/03/06 02:39:15;;;;;;;13.87;5.67;;;;;;;;;;6197654;23;20279;-92
2021/03/06 02:42:22;;;;;;;13.10;5.47;;;;;;;;;;6197740;23;20168;-89
2021/03/06 02:45:29;;;;;;;14.33;5.63;;;;;;;;;;6179080;23;20172;-88
2021/03/06 02:48:33;;;;;;;9.90;5.13;;;;;;;;;;6197094;23;20184;-91
2021/03/06 02:51:38;;;;;;;14.73;5.80;;;;;;;;;;6197639;23;20613;-90
2021/03/06 02:54:42;;;;;;;20.87;5.80;;;;;;;;;;6197643;23;20171;-89
2021/03/06 02:57:57;;;;;;;12.30;4.97;;;;;;;;;;6195404;23;20179;-88
2021/03/06 03:01:04;;;;;;;14.70;5.87;;;;;;;;;;6196538;23;20195;-89
2021/03/06 03:04:12;;;;;;;11.00;5.23;;;;;;;;;;6197587;23;20168;-90
2021/03/06 03:07:21;;;;;;;12.67;5.60;;;;;;;;;;6179670;23;20212;-89
2021/03/06 03:10:26;;;;;;;12.60;5.67;;;;;;;;;;6197209;23;20176;-88
2021/03/06 03:13:32;;;;;;;13.90;5.30;;;;;;;;;;6179594;23;20225;-88
2021/03/06 03:16:41;;;;;;;11.23;5.20;;;;;;;;;;6197511;23;20248;-89
2021/03/06 03:19:49;;;;;;;14.90;5.63;;;;;;;;;;6198180;23;20184;-88
2021/03/06 03:22:56;;;;;;;14.43;5.30;;;;;;;;;;6198307;23;20176;-89
2021/03/06 03:26:03;;;;;;;13.00;5.87;;;;;;;;;;6198162;23;20172;-88
2021/03/06 03:29:09;;;;;;;13.13;5.60;;;;;;;;;;6197732;23;20191;-90
2021/03/06 03:32:15;;;;;;;10.90;5.00;;;;;;;;;;6197654;23;20225;-89
2021/03/06 03:35:21;;;;;;;10.83;4.83;;;;;;;;;;6196377;23;20486;-89
2021/03/06 03:38:26;;;;;;;10.03;5.30;;;;;;;;;;6197387;23;20156;-89
2021/03/06 03:41:30;;;;;;;13.13;5.43;;;;;;;;;;6180235;23;20168;-89
2021/03/06 03:44:36;;;;;;;10.27;5.13;;;;;;;;;;6181197;23;20171;-88
2021/03/06 03:47:42;;;;;;;9.40;5.30;;;;;;;;;;6180720;23;20251;-88
2021/03/06 03:50:48;;;;;;;13.00;5.37;;;;;;;;;;6198057;23;20639;-89
2021/03/06 03:53:52;;;;;;;13.73;5.30;;;;;;;;;;6196532;23;20179;-90
2021/03/06 03:56:56;;;;;;;11.47;5.10;;;;;;;;;;6197163;23;20190;-88
2021/03/06 04:00:01;;;;;;;21.33;5.30;;;;;;;;;;6196507;23;20223;-89
2021/03/06 04:03:07;;;;;;;12.73;5.50;;;;;;;;;;6196529;23;20192;-90
2021/03/06 04:06:11;;;;;;;13.70;5.87;;;;;;;;;;6197583;23;20199;-89
2021/03/06 04:09:16;;;;;;;12.00;5.20;;;;;;;;;;6197705;23;20171;-89
2021/03/06 04:12:20;;;;;;;12.77;5.70;;;;;;;;;;6196057;23;20168;-88
2021/03/06 04:15:25;;;;;;;12.33;5.53;;;;;;;;;;6196261;23;20175;-90
2021/03/06 04:18:31;;;;;;;12.30;5.33;;;;;;;;;;6197630;23;20168;-90
2021/03/06 04:21:35;;;;;;;13.37;5.30;;;;;;;;;;6197654;23;20168;-89
2021/03/06 04:24:40;;;;;;;9.80;4.77;;;;;;;;;;6197789;23;20208;-89
2021/03/06 04:27:44;;;;;;;13.73;5.40;;;;;;;;;;6196756;23;20195;-88
2021/03/06 04:30:49;;;;;;;13.17;5.30;;;;;;;;;;6195762;23;20254;-89
2021/03/06 04:33:54;;;;;;;13.63;5.33;;;;;;;;;;6196438;23;20228;-88
2021/03/06 04:36:59;;;;;;;10.60;5.27;;;;;;;;;;6204396;23;20207;-89
2021/03/06 04:40:03;;;;;;;12.63;6.00;;;;;;;;;;6196786;23;20172;-88
2021/03/06 04:43:07;;;;;;;11.33;5.30;;;;;;;;;;6214574;23;20207;-89
2021/03/06 04:46:13;;;;;;;16.80;5.30;;;;;;;;;;6196908;23;20172;-90
2021/03/06 04:49:18;;;;;;;13.70;5.03;;;;;;;;;;6196884;23;20199;-88
2021/03/06 04:52:22;;;;;;;11.60;5.50;;;;;;;;;;6195761;23;20175;-89
2021/03/06 04:55:27;;;;;;;15.33;5.43;;;;;;;;;;6196198;23;20168;-88
2021/03/06 04:58:31;;;;;;;14.97;5.47;;;;;;;;;;6197837;23;20188;-88
2021/03/06 05:01:35;;;;;;;12.13;4.90;;;;;;;;;;6197311;23;20239;-89
2021/03/06 05:04:41;;;;;;;18.23;4.97;;;;;;;;;;6198137;23;20611;-88
2021/03/06 05:07:46;;;;;;;15.33;5.27;;;;;;;;;;6195750;23;20760;-88
2021/03/06 05:10:50;;;;;;;13.37;5.40;;;;;;;;;;6195726;23;20187;-88
2021/03/06 05:13:55;;;;;;;11.90;5.20;;;;;;;;;;6197167;23;20219;-89
2021/03/06 05:16:59;;;;;;;12.57;5.53;;;;;;;;;;6196176;23;20179;-88
2021/03/06 05:20:05;;;;;;;13.87;5.50;;;;;;;;;;6196878;23;20252;-89
2021/03/06 05:23:09;;;;;;;14.43;5.20;;;;;;;;;;6195631;23;20179;-89
2021/03/06 05:26:14;;;;;;;17.57;4.93;;;;;;;;;;6196276;23;20187;-89
2021/03/06 05:29:18;;;;;;;11.40;4.83;;;;;;;;;;6196325;23;20176;-89
2021/03/06 05:32:23;;;;;;;13.70;5.30;;;;;;;;;;6196615;23;20527;-89
2021/03/06 05:35:28;;;;;;;11.17;4.83;;;;;;;;;;6196245;23;20183;-89
2021/03/06 05:38:33;;;;;;;10.57;4.90;;;;;;;;;;6197594;23;20650;-89
2021/03/06 05:41:38;;;;;;;16.47;5.47;;;;;;;;;;6179222;23;20175;-89
2021/03/06 05:44:43;;;;;;;13.47;4.93;;;;;;;;;;6196957;23;20175;-89
2021/03/06 05:47:48;;;;;;;13.27;4.57;;;;;;;;;;6195397;23;20255;-89
2021/03/06 05:50:54;;;;;;;14.43;5.80;;;;;;;;;;6196864;23;20542;-89
2021/03/06 05:53:59;;;;;;;9.70;4.63;;;;;;;;;;6196584;23;20167;-89
2021/03/06 05:57:04;;;;;;;12.40;4.93;;;;;;;;;;6197071;23;20187;-89
2021/03/06 06:00:10;;;;;;;14.73;5.40;;;;;;;;;;6196213;23;20627;-88
2021/03/06 06:03:16;;;;;;;13.23;5.10;;;;;;;;;;6197146;23;20168;-89
2021/03/06 06:06:21;;;;;;;20.47;5.47;;;;;;;;;;6181946;23;20175;-90
2021/03/06 06:09:25;;;;;;;12.97;5.37;;;;;;;;;;6199929;23;20175;-88
2021/03/06 06:12:30;;;;;;;12.40;5.33;;;;;;;;;;6198846;23;20176;-88
2021/03/06 06:15:35;;;;;;;10.70;5.00;;;;;;;;;;6198743;23;20221;-88
2021/03/06 06:18:40;;;;;;;13.60;5.57;;;;;;;;;;6198417;23;20191;-89
2021/03/06 06:21:46;;;;;;;10.20;5.00;;;;;;;;;;6197507;23;20244;-88
2021/03/06 06:24:51;;;;;;;13.57;5.03;;;;;;;;;;6197525;23;20172;-90
2021/03/06 06:28:00;;;;;;;12.27;4.90;;;;;;;;;;6197464;23;20188;-88
2021/03/06 06:31:11;;;;;;;11.17;4.70;;;;;;;;;;6197220;23;20183;-89
2021/03/06 06:34:16;;;;;;;12.40;5.10;;;;;;;;;;6198008;23;20212;-88
2021/03/06 06:37:21;;;;;;;13.57;5.13;;;;;;;;;;6210247;23;20187;-89
2021/03/06 06:40:26;;;;;;;9.13;4.93;;;;;;;;;;6197979;23;20172;-89
2021/03/06 06:43:30;;;;;;;11.27;5.30;;;;;;;;;;6198387;23;20254;-89
2021/03/06 06:46:35;;;;;;;10.00;5.07;;;;;;;;;;6197434;23;20223;-89
2021/03/06 06:49:46;;;;;;;13.10;5.17;;;;;;;;;;6197179;23;20171;-90
2021/03/06 06:52:52;;;;;;;13.10;5.97;;;;;;;;;;6198352;23;20160;-90
2021/03/06 06:55:57;;;;;;;12.20;5.67;;;;;;;;;;6204043;23;20188;-90
2021/03/06 06:59:04;;;;;;;8.47;4.20;;;;;;;;;;6199241;23;20172;-89
2021/03/06 07:02:10;;;;;;;11.93;5.83;;;;;;;;;;6198688;23;20171;-90
2021/03/06 07:05:26;;;;;;;11.90;5.20;;;;;;;;;;6196879;23;20172;-90
2021/03/06 07:08:31;;;;;;;12.63;4.97;;;;;;;;;;6196828;23;20255;-90
2021/03/06 07:11:36;;;;;;;10.80;4.70;;;;;;;;;;6198590;23;20222;-90
2021/03/06 07:14:41;;;;;;;13.77;5.23;;;;;;;;;;6196392;23;20196;-88
2021/03/06 07:17:46;;;;;;;14.30;5.20;;;;;;;;;;6197510;23;20196;-88
2021/03/06 07:20:52;;;;;;;11.27;5.30;;;;;;;;;;6199408;23;20167;-89
2021/03/06 07:23:58;;;;;;;12.10;5.03;;;;;;;;;;6198275;23;20623;-92
2021/03/06 07:27:03;;;;;;;10.50;4.60;;;;;;;;;;6197650;23;20195;-90
2021/03/06 07:30:08;;;;;;;10.27;4.63;;;;;;;;;;6196352;23;20195;-90
2021/03/06 07:33:16;;;;;;;12.53;5.43;;;;;;;;;;6215805;23;20179;-90
2021/03/06 07:36:20;;;;;;;9.30;5.10;;;;;;;;;;6197627;23;20231;-88
2021/03/06 07:39:27;;;;;;;15.63;5.53;;;;;;;;;;6196833;23;20164;-91
2021/03/06 07:42:38;;;;;;;10.97;4.87;;;;;;;;;;6221453;23;20172;-89
2021/03/06 07:45:43;;;;;;;9.00;4.80;;;;;;;;;;6199643;23;20620;-89
2021/03/06 07:48:49;;;;;;;16.43;4.80;;;;;;;;;;6199978;23;20187;-88
2021/03/06 07:51:54;;;;;;;11.83;5.13;;;;;;;;;;6199675;23;20167;-90
2021/03/06 07:55:00;;;;;;;8.93;4.20;;;;;;;;;;6199168;23;20172;-89
2021/03/06 07:58:09;;;;;;;9.40;4.17;;;;;;;;;;6201719;23;20179;-89
2021/03/06 08:01:25;;;;;;;12.70;4.40;;;;;;;;;;6204729;23;20192;-87
2021/03/06 08:04:37;;;;;;;13.00;4.90;;;;;;;;;;6202136;23;20160;-89
2021/03/06 08:07:45;;;;;;;16.97;4.73;;;;;;;;;;6188378;23;20243;-90
2021/03/06 08:11:07;;;;;;;8.57;4.30;;;;;;;;;;6201861;23;20175;-90
2021/03/06 08:14:29;;;;;;;10.87;4.13;;;;;;;;;;6202899;23;20240;-91
2021/03/06 08:17:36;;;;;;;9.90;4.30;;;;;;;;;;6202275;23;20172;-90
2021/03/06 08:20:41;;;;;;;8.23;4.33;;;;;;;;;;6202249;23;20167;-90
2021/03/06 08:23:45;;;;;;;8.87;4.30;;;;;;;;;;6202175;23;20211;-88
2021/03/06 08:26:52;;;;;;;13.37;4.17;;;;;;;;;;6200621;23;20183;-89
2021/03/06 08:29:59;;;;;;;9.93;3.93;;;;;;;;;;6200510;23;20168;-89
2021/03/06 08:33:16;;;;;;;15.57;3.90;;;;;;;;;;6217136;23;20171;-88
2021/03/06 08:36:23;;;;;;;12.60;4.37;;;;;;;;;;6217624;23;20191;-91
2021/03/06 08:39:27;;;;;;;16.97;4.00;;;;;;;;;;6200727;23;20195;-88
2021/03/06 08:42:34;;;;;;;13.57;4.20;;;;;;;;;;6200406;23;20171;-88
2021/03/06 08:45:40;;;;;;;9.50;3.80;;;;;;;;;;6198302;23;20219;-89
2021/03/06 08:48:51;;;;;;;17.37;3.77;;;;;;;;;;6200539;23;20235;-88
2021/03/06 08:51:55;;;;;;;11.47;3.50;;;;;;;;;;6200321;23;20184;-88
2021/03/06 08:55:00;;;;;;;11.70;3.70;;;;;;;;;;6200957;23;20192;-90
2021/03/06 08:58:06;;;;;;;6.63;3.33;;;;;;;;;;6199917;23;20667;-88
2021/03/06 09:01:12;;;;;;;7.43;3.67;;;;;;;;;;6197676;23;20224;-89
2021/03/06 09:04:16;;;;;;;14.33;3.40;;;;;;;;;;6199689;23;20191;-89
2021/03/06 09:07:28;;;;;;;17.60;3.67;;;;;;;;;;6200867;23;20187;-88
2021/03/06 09:10:38;;;;;;;5.27;2.97;;;;;;;;;;6199723;23;20195;-89
2021/03/06 09:13:42;;;;;;;9.10;3.70;;;;;;;;;;6198774;23;20168;-89
2021/03/06 09:16:49;;;;;;;7.77;3.87;;;;;;;;;;6215501;23;20207;-87
2021/03/06 09:20:01;;;;;;;8.00;3.93;;;;;;;;;;6199759;23;20167;-90
2021/03/06 09:23:08;;;;;;;8.23;3.87;;;;;;;;;;6200964;23;20272;-88
2021/03/06 09:26:14;;;;;;;18.17;4.20;;;;;;;;;;6198563;23;20165;-90
2021/03/06 09:29:20;;;;;;;11.57;3.17;;;;;;;;;;6201414;23;20159;-90
2021/03/06 09:32:33;;;;;;;12.40;3.70;;;;;;;;;;6217428;23;20171;-88
2021/03/06 09:35:38;;;;;;;14.60;3.50;;;;;;;;;;6215576;23;20191;-89
2021/03/06 09:38:45;;;;;;;12.57;3.13;;;;;;;;;;6201564;23;20208;-87
2021/03/06 09:41:49;;;;;;;10.53;3.47;;;;;;;;;;6201056;23;20168;-88
2021/03/06 09:44:55;;;;;;;11.83;4.03;;;;;;;;;;6201196;23;20159;-88
2021/03/06 09:48:12;;;;;;;5.47;2.30;;;;;;;;;;6199672;23;20196;-89
2021/03/06 09:51:17;;;;;;;5.13;2.53;;;;;;;;;;6200269;23;20175;-88
2021/03/06 09:54:22;;;;;;;11.97;3.00;;;;;;;;;;6183227;23;20652;-89
2021/03/06 09:57:28;;;;;;;12.37;3.10;;;;;;;;;;6201654;23;20179;-89
2021/03/06 10:00:33;;;;;;;11.03;2.80;;;;;;;;;;6200520;23;20183;-89
2021/03/06 10:03:38;;;;;;;8.60;2.33;;;;;;;;;;6201032;23;20188;-89
2021/03/06 10:06:43;;;;;;;8.23;2.80;;;;;;;;;;6199182;23;20229;-88
2021/03/06 10:09:50;;;;;;;4.07;2.27;;;;;;;;;;6200303;23;20172;-91
2021/03/06 10:12:55;;;;;;;4.57;2.13;;;;;;;;;;6199529;23;20183;-90
2021/03/06 10:16:00;;;;;;;5.47;2.43;;;;;;;;;;6181789;23;20175;-89
2021/03/06 10:19:06;;;;;;;6.30;2.70;;;;;;;;;;6199394;23;20627;-88
2021/03/06 10:22:12;;;;;;;6.40;2.40;;;;;;;;;;6201538;23;20188;-88
2021/03/06 10:25:24;;;;;;;10.37;2.77;;;;;;;;;;6198272;23;20627;-91
2021/03/06 10:28:31;;;;;;;5.63;2.80;;;;;;;;;;6200279;23;20581;-89
2021/03/06 10:31:41;;;;;;;5.70;2.50;;;;;;;;;;6182136;23;20172;-90
2021/03/06 10:34:48;;;;;;;6.50;2.50;;;;;;;;;;6197445;23;20731;-90
2021/03/06 10:37:54;;;;;;;5.40;2.73;;;;;;;;;;6181244;23;20552;-90
2021/03/06 10:41:00;;;;;;;4.27;2.33;;;;;;;;;;6198289;23;20172;-90
2021/03/06 10:44:12;;;;;;;5.20;2.77;;;;;;;;;;6199196;23;20179;-90
2021/03/06 10:47:17;;;;;;;9.53;3.87;;;;;;;;;;6181328;23;20527;-90
2021/03/06 10:50:24;;;;;;;4.83;2.80;;;;;;;;;;6200099;23;20215;-90
2021/03/06 10:53:29;;;;;;;4.60;2.50;;;;;;;;;;6201810;23;20228;-89
2021/03/06 10:56:34;;;;;;;5.87;2.73;;;;;;;;;;6201629;23;20175;-87
2021/03/06 10:59:38;;;;;;;4.33;2.27;;;;;;;;;;6203314;23;20231;-89
2021/03/06 11:02:55;;;;;;;10.77;2.90;;;;;;;;;;6185002;23;20217;-90
2021/03/06 11:06:02;;;;;;;11.57;2.40;;;;;;;;;;6200831;23;20168;-86
2021/03/06 11:09:08;;;;;;;6.53;2.43;;;;;;;;;;6203312;23;20168;-88
2021/03/06 11:12:16;;;;;;;6.20;2.20;;;;;;;;;;6201203;23;20176;-87
2021/03/06 11:15:23;;;;;;;8.63;2.70;;;;;;;;;;6199899;23;20237;-89
2021/03/06 11:18:28;;;;;;;5.43;2.43;;;;;;;;;;6200898;23;20172;-90
2021/03/06 11:21:33;;;;;;;4.17;2.20;;;;;;;;;;6200248;23;20180;-91
2021/03/06 11:24:38;;;;;;;6.23;2.40;;;;;;;;;;6201450;23;20171;-90
2021/03/06 11:27:47;;;;;;;6.97;2.53;;;;;;;;;;6202824;23;20246;-88
2021/03/06 11:30:52;;;;;;;4.40;2.43;;;;;;;;;;6201867;23;20172;-87
2021/03/06 11:33:58;;;;;;;4.10;2.00;;;;;;;;;;6202307;23;20655;-88
2021/03/06 11:37:04;;;;;;;7.50;2.30;;;;;;;;;;6192728;23;20211;-89
2021/03/06 11:40:10;;;;;;;4.80;2.33;;;;;;;;;;6202766;23;20219;-87
2021/03/06 11:43:19;;;;;;;5.27;2.70;;;;;;;;;;6201960;23;20225;-90
2021/03/06 11:46:25;;;;;;;5.20;2.60;;;;;;;;;;6203266;23;20163;-86
2021/03/06 11:49:30;;;;;;;6.10;2.33;;;;;;;;;;6203286;23;20196;-90
2021/03/06 11:52:38;;;;;;;4.83;2.20;;;;;;;;;;6200546;23;20175;-89
2021/03/06 11:55:47;;;;;;;4.23;2.50;;;;;;;;;;6199860;23;20172;-91
2021/03/06 11:58:53;;;;;;;6.40;2.20;;;;;;;;;;6217624;22;20260;-90
2021/03/06 12:01:57;;;;;;;5.47;2.73;;;;;;;;;;6200282;23;20287;-91
2021/03/06 12:05:02;;;;;;;3.70;2.00;;;;;;;;;;6199745;23;20188;-91
2021/03/06 12:08:09;;;;;;;9.20;3.30;;;;;;;;;;6197889;23;20206;-92
2021/03/06 12:11:14;;;;;;;5.50;2.50;;;;;;;;;;6200105;23;20159;-91
2021/03/06 12:14:19;;;;;;;4.23;2.37;;;;;;;;;;6201893;23;20199;-90
2021/03/06 12:17:24;;;;;;;8.53;2.47;;;;;;;;;;6201030;23;20192;-90
2021/03/06 12:20:29;;;;;;;5.40;3.07;;;;;;;;;;6201704;23;20256;-90
2021/03/06 12:23:36;;;;;;;6.00;2.67;;;;;;;;;;6200020;23;20203;-89
2021/03/06 12:26:41;;;;;;;8.07;2.57;;;;;;;;;;6201920;23;20155;-89
2021/03/06 12:29:46;;;;;;;5.27;2.63;;;;;;;;;;6200227;23;20199;-91
2021/03/06 12:32:52;;;;;;;7.43;3.07;;;;;;;;;;6201977;23;20168;-89
2021/03/06 12:35:56;;;;;;;7.97;3.27;;;;;;;;;;6201109;23;20175;-89
2021/03/06 12:39:02;;;;;;;6.17;3.20;;;;;;;;;;6203990;23;20248;-91
2021/03/06 12:42:07;;;;;;;5.83;3.37;;;;;;;;;;6203888;23;20167;-90
2021/03/06 12:45:14;;;;;;;8.23;3.77;;;;;;;;;;6203373;23;20564;-90
2021/03/06 12:48:21;;;;;;;6.83;3.10;;;;;;;;;;6204233;23;20276;-92
2021/03/06 12:51:34;;;;;;;12.30;3.73;;;;;;;;;;6203327;23;20191;-91
2021/03/06 12:54:40;;;;;;;6.90;3.60;;;;;;;;;;6188536;23;20180;-90
2021/03/06 12:57:45;;;;;;;9.70;3.20;;;;;;;;;;6187314;23;20179;-90
2021/03/06 13:00:50;;;;;;;8.67;3.57;;;;;;;;;;6205426;23;20172;-91
2021/03/06 13:03:55;;;;;;;9.13;3.50;;;;;;;;;;6203155;23;20213;-90
2021/03/06 17:44:49;;;;;;;11.93;5.70;;;;;;;;;;6184903;23;20200;-92
2021/03/06 17:47:54;;;;;;;12.00;5.20;;;;;;;;;;6200771;23;20227;-91
2021/03/06 17:50:59;;;;;;;9.77;4.30;;;;;;;;;;6200886;23;20188;-92
2021/03/06 17:54:06;;;;;;;9.37;4.67;;;;;;;;;;6203100;23;20159;-92
2021/03/06 17:57:10;;;;;;;22.43;10.20;;;;;;;;;;6201158;23;20228;-92
2021/03/06 18:00:31;;;;;;;13.67;6.13;;;;;;;;;;6201919;23;20219;-92
2021/03/06 18:03:38;;;;;;;14.77;5.87;;;;;;;;;;6184061;23;20232;-91
2021/03/06 18:06:43;;;;;;;19.33;7.27;;;;;;;;;;6201138;23;20151;-90
2021/03/06 18:09:47;;;;;;;21.00;7.60;;;;;;;;;;6200808;23;20167;-92
2021/03/06 18:12:53;;;;;;;21.27;8.63;;;;;;;;;;6200023;23;20180;-90
2021/03/06 18:15:57;;;;;;;21.13;8.13;;;;;;;;;;6200567;23;20184;-92
2021/03/06 18:19:03;;;;;;;21.57;8.40;;;;;;;;;;6182390;23;20207;-91
2021/03/06 18:22:08;;;;;;;26.43;9.80;;;;;;;;;;6199927;23;20196;-90
2021/03/06 18:25:13;;;;;;;24.00;8.93;;;;;;;;;;6201064;23;20568;-89
2021/03/06 18:28:18;;;;;;;26.83;11.03;;;;;;;;;;6199784;23;20215;-91
2021/03/06 18:31:22;;;;;;;21.20;9.13;;;;;;;;;;6200205;23;20171;-91
2021/03/06 18:34:34;;;;;;;23.27;9.87;;;;;;;;;;6199350;23;20171;-90
2021/03/06 18:37:39;;;;;;;26.33;8.93;;;;;;;;;;6199729;23;20177;-92
2021/03/06 18:40:43;;;;;;;23.67;8.00;;;;;;;;;;6199584;23;20172;-91
2021/03/06 18:43:48;;;;;;;22.37;7.57;;;;;;;;;;6199715;23;20199;-90
2021/03/06 18:46:53;;;;;;;19.90;7.37;;;;;;;;;;6199680;23;20171;-91
2021/03/06 18:49:58;;;;;;;22.10;7.63;;;;;;;;;;6200648;23;20172;-93
2021/03/06 18:53:06;;;;;;;19.43;7.67;;;;;;;;;;6201437;23;20195;-90
2021/03/06 18:56:12;;;;;;;23.30;7.43;;;;;;;;;;6199916;23;20176;-90
2021/03/06 18:59:17;;;;;;;18.67;7.03;;;;;;;;;;6202171;23;20490;-90
2021/03/06 19:02:22;;;;;;;21.67;8.00;;;;;;;;;;6200905;23;20164;-91
2021/03/06 19:05:27;;;;;;;20.10;6.90;;;;;;;;;;6199982;23;20151;-90
2021/03/06 19:08:32;;;;;;;18.57;6.17;;;;;;;;;;6201426;23;20244;-90
2021/03/06 19:11:42;;;;;;;19.73;6.17;;;;;;;;;;6206815;23;20168;-88
2021/03/06 19:14:49;;;;;;;16.70;6.60;;;;;;;;;;6186866;23;20212;-91
2021/03/06 19:17:54;;;;;;;18.90;6.47;;;;;;;;;;6204100;23;20220;-93
2021/03/06 19:21:00;;;;;;;21.17;6.67;;;;;;;;;;6202919;23;20168;-91
2021/03/06 19:24:05;;;;;;;15.53;7.17;;;;;;;;;;6201093;23;20183;-92
2021/03/06 19:27:10;;;;;;;15.80;6.33;;;;;;;;;;6201355;23;20187;-87
2021/03/06 19:30:16;;;;;;;16.37;6.00;;;;;;;;;;6203799;23;20196;-89
2021/03/06 19:33:23;;;;;;;17.47;6.27;;;;;;;;;;6201665;23;20176;-90
2021/03/06 19:36:28;;;;;;;18.30;6.60;;;;;;;;;;6201347;23;20171;-90
2021/03/06 19:39:33;;;;;;;15.37;6.03;;;;;;;;;;6183775;23;20168;-88
2021/03/06 19:42:38;;;;;;;37.40;14.90;;;;;;;;;;6200126;23;20176;-88
2021/03/06 19:45:42;;;;;;;20.93;6.50;;;;;;;;;;6182532;23;20195;-89
2021/03/06 19:48:48;;;;;;;15.67;6.33;;;;;;;;;;6186974;23;20663;-90
2021/03/06 19:51:54;;;;;;;17.73;7.10;;;;;;;;;;6202837;23;20160;-90
2021/03/06 19:54:59;;;;;;;22.20;7.83;;;;;;;;;;6201965;23;20172;-89
2021/03/06 19:58:04;;;;;;;20.20;7.50;;;;;;;;;;6200022;23;20184;-90
2021/03/06 20:01:08;;;;;;;20.80;7.70;;;;;;;;;;6201912;23;20195;-91
2021/03/06 20:04:14;;;;;;;28.23;10.00;;;;;;;;;;6186432;23;20167;-90
2021/03/06 20:07:22;;;;;;;25.43;8.77;;;;;;;;;;6201712;23;20610;-90
2021/03/06 20:10:28;;;;;;;25.00;9.20;;;;;;;;;;6203512;23;20590;-89
2021/03/06 20:13:33;;;;;;;29.30;9.53;;;;;;;;;;6201630;23;20184;-90
2021/03/06 20:16:38;;;;;;;27.03;9.77;;;;;;;;;;6202191;23;20164;-92
2021/03/06 20:19:45;;;;;;;27.30;9.33;;;;;;;;;;6204245;23;20213;-90
2021/03/06 20:22:51;;;;;;;29.33;9.40;;;;;;;;;;6203616;23;20599;-90
2021/03/06 20:25:57;;;;;;;23.63;8.97;;;;;;;;;;6202697;23;20573;-91
2021/03/06 20:29:02;;;;;;;22.90;7.97;;;;;;;;;;6184630;23;20199;-90
2021/03/06 20:32:08;;;;;;;21.20;8.07;;;;;;;;;;6201665;23;20184;-90
2021/03/06 20:35:13;;;;;;;18.77;7.00;;;;;;;;;;6201404;23;20284;-91
2021/03/06 20:38:20;;;;;;;17.37;7.17;;;;;;;;;;6203592;23;20224;-89
2021/03/06 20:41:30;;;;;;;17.13;6.90;;;;;;;;;;6202176;23;20168;-90
2021/03/06 20:44:36;;;;;;;16.20;6.33;;;;;;;;;;6191066;23;20266;-89
2021/03/06 20:47:46;;;;;;;20.53;6.30;;;;;;;;;;6201829;23;20237;-90
2021/03/06 20:50:51;;;;;;;20.73;6.10;;;;;;;;;;6200860;23;20172;-89
2021/03/06 20:53:57;;;;;;;14.83;6.07;;;;;;;;;;6201740;23;20171;-89
2021/03/06 20:57:02;;;;;;;13.90;5.73;;;;;;;;;;6217637;22;20164;-90
2021/03/06 21:00:08;;;;;;;13.97;6.17;;;;;;;;;;6201586;23;20619;-91
2021/03/06 21:03:13;;;;;;;15.20;6.30;;;;;;;;;;6203803;23;20179;-90
2021/03/06 21:06:19;;;;;;;12.80;5.43;;;;;;;;;;6221943;23;20163;-89
2021/03/06 21:09:28;;;;;;;13.57;5.17;;;;;;;;;;6224015;23;20196;-91
2021/03/06 21:12:32;;;;;;;14.37;5.67;;;;;;;;;;6206531;23;20171;-91
2021/03/06 21:15:37;;;;;;;18.90;5.57;;;;;;;;;;6221328;23;20164;-88
2021/03/06 21:18:43;;;;;;;13.50;5.63;;;;;;;;;;6205065;23;20151;-91
2021/03/06 21:21:49;;;;;;;15.13;5.93;;;;;;;;;;6205393;23;20176;-89
2021/03/06 21:24:58;;;;;;;18.83;6.83;;;;;;;;;;6204948;23;20167;-90
2021/03/06 21:28:03;;;;;;;15.07;6.90;;;;;;;;;;6204672;23;20200;-92
2021/03/06 23:02:04;;;;;;;13.23;5.83;;;;;;;;;;6174605;23;20241;-84
2021/03/06 23:05:09;;;;;;;14.87;6.00;;;;;;;;;;6191732;23;20465;-85
2021/03/06 23:08:14;;;;;;;13.80;6.17;;;;;;;;;;6173536;23;20192;-85
2021/03/06 23:11:19;;;;;;;14.10;6.23;;;;;;;;;;6174997;23;20187;-84
2021/03/06 23:14:23;;;;;;;12.47;5.70;;;;;;;;;;6192955;23;20172;-84
2021/03/06 23:17:29;;;;;;;15.23;6.03;;;;;;;;;;6167672;23;20587;-84
2021/03/06 23:20:34;;;;;;;14.40;5.80;;;;;;;;;;6144628;23;20185;-85
2021/03/06 23:23:40;;;;;;;12.23;5.60;;;;;;;;;;6168506;23;20204;-84
2021/03/06 23:26:45;;;;;;;13.17;5.60;;;;;;;;;;6159873;23;20244;-83
2021/03/06 23:29:50;;;;;;;15.40;6.50;;;;;;;;;;6146097;23;20208;-84
2021/03/06 23:32:55;;;;;;;13.33;6.00;;;;;;;;;;6161058;23;20176;-84
2021/03/06 23:36:00;;;;;;;16.00;7.13;;;;;;;;;;6143520;23;20180;-85
2021/03/06 23:39:05;;;;;;;18.53;6.67;;;;;;;;;;6160899;23;20228;-85
2021/03/06 23:42:10;;;;;;;20.17;8.03;;;;;;;;;;6160767;23;20175;-85
2021/03/06 23:45:16;;;;;;;25.93;8.90;;;;;;;;;;6159914;23;20195;-84
2021/03/06 23:48:22;;;;;;;31.23;10.40;;;;;;;;;;6160206;23;20204;-84
2021/03/06 23:51:26;;;;;;;21.37;7.67;;;;;;;;;;6143205;23;20580;-85
2021/03/06 23:54:31;;;;;;;16.00;6.97;;;;;;;;;;6143072;23;20598;-85
2021/03/06 23:57:35;;;;;;;13.77;6.43;;;;;;;;;;6142290;23;20227;-85
